Time;durP1;ratioP1;P1;durP2;ratioP2;P2;SDS_P1;SDS_P2;PMS_P1;PMS_P2;Temp;Humidity;BMP_temperature;BMP_pressure;BME280_temperature;BME280_humidity;BME280_pressure;Samples;Min_cycle;Max_cycle;Signal;HPM_P1;HPM_P2
2023/01/14 00:01:20;;;;;;;12.97;7.30;;;6.90;99.90;;;;;;4976700;28;20273;-80
2023/01/14 00:03:48;;;;;;;13.27;7.37;;;6.90;99.90;;;;;;4976382;28;20210;-73
2023/01/14 00:06:18;;;;;;;11.90;7.00;;;6.90;99.90;;;;;;4959947;28;20201;-77
2023/01/14 00:08:45;;;;;;;13.47;7.10;;;6.90;99.90;;;;;;4976134;28;20590;-79
2023/01/14 00:11:13;;;;;;;13.33;7.80;;;6.80;99.90;;;;;;4960331;28;20278;-82
2023/01/14 00:13:41;;;;;;;12.57;7.70;;;6.80;99.90;;;;;;4977724;28;20654;-77
2023/01/14 00:16:12;;;;;;;15.27;7.83;;;6.80;99.90;;;;;;4976237;28;20303;-76
2023/01/14 00:18:39;;;;;;;12.83;7.50;;;6.80;99.90;;;;;;4959968;28;20231;-77
2023/01/14 00:21:15;;;;;;;13.07;6.83;;;6.80;99.90;;;;;;4977817;28;20271;-78
2023/01/14 00:23:42;;;;;;;14.13;8.07;;;6.80;99.90;;;;;;4962991;28;20203;-78
2023/01/14 00:26:14;;;;;;;13.73;7.70;;;6.80;99.90;;;;;;4976751;28;20657;-78
2023/01/14 00:28:46;;;;;;;14.97;7.63;;;6.80;99.90;;;;;;4965339;28;20768;-84
2023/01/14 00:31:21;;;;;;;12.73;6.93;;;6.80;99.90;;;;;;4960319;28;20544;-83
2023/01/14 00:33:48;;;;;;;13.77;7.23;;;6.70;99.90;;;;;;4959526;28;20196;-83
2023/01/14 00:36:18;;;;;;;12.70;7.17;;;6.70;99.90;;;;;;4976731;28;20233;-81
2023/01/14 00:38:45;;;;;;;13.90;7.20;;;6.70;99.90;;;;;;4959518;28;20218;-79
2023/01/14 00:41:18;;;;;;;13.27;7.50;;;6.60;99.90;;;;;;4959531;28;20214;-81
2023/01/14 00:43:47;;;;;;;14.13;7.37;;;6.60;99.90;;;;;;4959939;28;20203;-79
2023/01/14 00:46:16;;;;;;;13.40;7.53;;;6.60;99.90;;;;;;4959667;28;20182;-82
2023/01/14 00:48:43;;;;;;;13.00;7.73;;;6.60;99.90;;;;;;4959299;28;20238;-80
2023/01/14 00:51:12;;;;;;;13.43;7.27;;;6.60;99.90;;;;;;4976051;28;20232;-80
2023/01/14 00:53:40;;;;;;;13.30;7.50;;;6.60;99.90;;;;;;4959115;28;20282;-83
2023/01/14 00:56:08;;;;;;;15.17;7.43;;;6.60;99.90;;;;;;4976825;28;20207;-82
2023/01/14 00:58:35;;;;;;;11.33;6.77;;;6.60;99.90;;;;;;4983209;28;20232;-80
2023/01/14 01:01:05;;;;;;;14.27;7.40;;;6.60;99.90;;;;;;4964926;28;20743;-94
2023/01/14 01:03:36;;;;;;;15.67;7.73;;;6.60;99.90;;;;;;4960819;28;20203;-78
2023/01/14 01:06:03;;;;;;;13.93;7.13;;;6.60;99.90;;;;;;4975202;28;20208;-79
2023/01/14 01:08:30;;;;;;;12.57;7.13;;;6.60;99.90;;;;;;4959450;28;20291;-79
2023/01/14 01:10:56;;;;;;;15.33;7.30;;;6.50;99.90;;;;;;4957898;28;20203;-78
2023/01/14 01:13:24;;;;;;;11.50;7.20;;;6.60;99.90;;;;;;4975287;28;20241;-78
2023/01/14 01:15:52;;;;;;;13.07;6.60;;;6.50;99.90;;;;;;4958874;28;20200;-80
2023/01/14 01:18:22;;;;;;;13.30;6.97;;;6.50;99.90;;;;;;4974766;28;20644;-78
2023/01/14 01:20:49;;;;;;;11.40;6.60;;;6.50;99.90;;;;;;4959116;28;20197;-79
2023/01/14 01:23:16;;;;;;;13.27;6.50;;;6.50;99.90;;;;;;4976542;28;20186;-75
2023/01/14 01:25:43;;;;;;;12.00;5.87;;;6.60;99.90;;;;;;4958836;28;20202;-77
2023/01/14 01:28:11;;;;;;;10.67;6.60;;;6.50;99.90;;;;;;4976119;28;20663;-80
2023/01/14 01:30:38;;;;;;;11.17;6.73;;;6.40;99.90;;;;;;4976116;28;20641;-79
2023/01/14 01:33:04;;;;;;;11.33;6.20;;;6.50;99.90;;;;;;4958407;28;20335;-80
2023/01/14 01:35:31;;;;;;;10.30;5.57;;;6.50;99.90;;;;;;4942395;28;20232;-79
2023/01/14 01:37:58;;;;;;;10.33;5.67;;;6.40;99.90;;;;;;4976176;28;20205;-78
2023/01/14 01:40:25;;;;;;;11.27;5.97;;;6.50;99.90;;;;;;4976093;28;20211;-80
2023/01/14 01:42:55;;;;;;;10.40;5.97;;;6.40;99.90;;;;;;4974694;28;20295;-78
2023/01/14 01:45:27;;;;;;;12.60;5.80;;;6.40;99.90;;;;;;4957595;28;20275;-78
2023/01/14 01:48:04;;;;;;;11.47;5.57;;;6.50;99.90;;;;;;4975374;28;20185;-77
2023/01/14 01:50:32;;;;;;;10.33;5.30;;;6.40;99.90;;;;;;4958651;28;20303;-77
2023/01/14 01:53:01;;;;;;;11.13;5.20;;;6.40;99.90;;;;;;4958118;28;20207;-76
2023/01/14 01:55:33;;;;;;;9.10;5.30;;;6.30;99.90;;;;;;4958038;28;20214;-78
2023/01/14 01:58:01;;;;;;;10.00;5.10;;;6.30;99.90;;;;;;4975440;28;20187;-77
2023/01/14 02:00:28;;;;;;;11.47;5.37;;;6.30;99.90;;;;;;4958319;28;20230;-79
2023/01/14 02:03:03;;;;;;;9.33;5.20;;;6.30;99.90;;;;;;4957852;28;20203;-77
2023/01/14 02:05:30;;;;;;;10.80;5.50;;;6.30;99.90;;;;;;4957897;28;20199;-82
2023/01/14 02:07:58;;;;;;;9.97;5.17;;;6.20;99.90;;;;;;4974310;28;20208;-79
2023/01/14 02:10:45;;;;;;;11.10;5.70;;;6.20;99.90;;;;;;4975688;28;20189;-82
2023/01/14 02:13:58;;;;;;;11.27;5.13;;;6.20;99.90;;;;;;4974113;28;20205;-79
2023/01/14 02:16:39;;;;;;;11.20;5.50;;;6.20;99.90;;;;;;4896401;29;20263;-77
2023/01/14 02:19:21;;;;;;;10.57;5.70;;;6.20;99.90;;;;;;4896259;29;20221;-79
2023/01/14 02:22:20;;;;;;;9.47;5.40;;;6.20;99.90;;;;;;4881783;29;20215;-78
2023/01/14 02:24:58;;;;;;;12.53;6.00;;;6.10;99.90;;;;;;4881021;29;20202;-77
2023/01/14 02:27:41;;;;;;;11.23;6.00;;;6.20;99.90;;;;;;4897225;29;20203;-79
2023/01/14 02:30:15;;;;;;;11.00;6.60;;;6.00;99.90;;;;;;4881321;29;20215;-79
2023/01/14 02:33:01;;;;;;;11.50;6.73;;;6.00;99.90;;;;;;4896787;29;20315;-80
2023/01/14 02:35:33;;;;;;;14.53;7.40;;;5.90;99.90;;;;;;4879937;29;20263;-80
2023/01/14 02:38:27;;;;;;;12.10;7.60;;;5.90;99.90;;;;;;4896453;29;20210;-80
2023/01/14 02:41:17;;;;;;;16.60;8.20;;;5.80;99.90;;;;;;4896927;29;20249;-80
2023/01/14 02:44:07;;;;;;;15.67;8.43;;;5.90;99.90;;;;;;4897196;29;20213;-79
2023/01/14 02:46:56;;;;;;;16.40;9.00;;;5.80;99.90;;;;;;4895923;29;20244;-80
2023/01/14 02:49:32;;;;;;;17.20;8.77;;;5.80;99.90;;;;;;4880998;29;20202;-79
2023/01/14 02:51:59;;;;;;;17.70;8.70;;;5.80;99.90;;;;;;4939514;28;20204;-79
2023/01/14 02:54:27;;;;;;;16.03;8.80;;;5.70;99.90;;;;;;4974890;28;20319;-81
2023/01/14 02:57:01;;;;;;;16.00;9.40;;;5.70;99.90;;;;;;4973201;28;20205;-79
2023/01/14 02:59:57;;;;;;;16.63;8.43;;;5.70;99.90;;;;;;4957328;28;20228;-80
2023/01/14 03:02:45;;;;;;;15.27;8.63;;;5.60;99.90;;;;;;4958104;28;20227;-80
2023/01/14 03:05:46;;;;;;;16.43;8.93;;;5.60;99.90;;;;;;4957286;28;20243;-79
2023/01/14 03:08:20;;;;;;;15.77;8.80;;;5.60;99.90;;;;;;4957687;28;20192;-79
2023/01/14 03:11:00;;;;;;;16.50;8.93;;;5.50;99.90;;;;;;4957799;28;20540;-80
2023/01/14 03:13:39;;;;;;;15.03;8.83;;;5.60;99.90;;;;;;4957985;28;20663;-80
2023/01/14 03:16:17;;;;;;;15.00;8.43;;;5.60;99.90;;;;;;4974191;28;20565;-78
2023/01/14 03:18:50;;;;;;;17.07;9.13;;;5.50;99.90;;;;;;4941601;28;20215;-78
2023/01/14 03:21:34;;;;;;;13.50;8.73;;;5.60;99.90;;;;;;4973140;28;20199;-79
2023/01/14 03:24:07;;;;;;;16.13;9.27;;;5.60;99.90;;;;;;4973495;28;20306;-79
2023/01/14 03:26:37;;;;;;;17.27;8.90;;;5.60;99.90;;;;;;4957205;28;20203;-79
2023/01/14 03:29:10;;;;;;;17.73;8.97;;;5.70;99.90;;;;;;4973218;28;20208;-79
2023/01/14 03:31:42;;;;;;;16.73;9.40;;;5.70;99.90;;;;;;4974803;28;20187;-79
2023/01/14 03:34:15;;;;;;;19.10;9.30;;;5.80;99.90;;;;;;4957085;28;20305;-79
2023/01/14 03:36:44;;;;;;;15.00;8.63;;;5.80;99.90;;;;;;4956979;28;20593;-79
2023/01/14 03:39:15;;;;;;;12.57;8.00;;;5.80;99.90;;;;;;4957243;28;20226;-79
2023/01/14 03:45:06;;;;;;;14.07;8.47;;;5.70;99.90;;;;;;4957445;28;20199;-78
2023/01/14 03:47:35;;;;;;;11.97;7.67;;;5.60;99.90;;;;;;4899173;29;20210;-79
2023/01/14 03:50:05;;;;;;;13.67;7.57;;;5.60;99.90;;;;;;4914822;29;20638;-79
2023/01/14 03:53:12;;;;;;;14.13;8.00;;;5.60;99.90;;;;;;4914666;29;20231;-78
2023/01/14 03:55:51;;;;;;;13.03;7.40;;;5.60;99.90;;;;;;4914570;29;20766;-79
2023/01/14 03:58:29;;;;;;;14.33;7.93;;;5.50;99.90;;;;;;4914838;29;20208;-79
2023/01/14 04:01:03;;;;;;;11.73;7.13;;;5.50;99.90;;;;;;4914837;29;20226;-79
2023/01/14 04:03:30;;;;;;;16.57;8.33;;;5.40;99.90;;;;;;4914658;29;20204;-79
2023/01/14 04:05:57;;;;;;;13.07;7.80;;;5.40;99.90;;;;;;4914874;29;20214;-78
2023/01/14 04:08:25;;;;;;;12.77;6.97;;;5.40;99.90;;;;;;4914778;29;20232;-78
2023/01/14 04:10:51;;;;;;;13.50;7.67;;;5.40;99.90;;;;;;4901951;29;20212;-79
2023/01/14 04:16:04;;;;;;;13.37;7.57;;;5.40;99.90;;;;;;4917583;29;20249;-78
2023/01/14 04:18:31;;;;;;;13.57;7.10;;;5.30;99.90;;;;;;4918205;29;20254;-78
2023/01/14 04:20:58;;;;;;;13.30;7.00;;;5.30;99.90;;;;;;4918185;29;20223;-79
2023/01/14 04:23:24;;;;;;;12.37;6.80;;;5.30;99.90;;;;;;4918461;28;20206;-77
2023/01/14 04:25:59;;;;;;;13.33;6.67;;;5.30;99.90;;;;;;4977046;28;20200;-78
2023/01/14 04:28:26;;;;;;;12.40;6.67;;;5.30;99.90;;;;;;4977048;28;20666;-79
2023/01/14 04:30:53;;;;;;;13.17;6.80;;;5.30;99.90;;;;;;4977804;28;20205;-79
2023/01/14 04:33:21;;;;;;;10.83;6.80;;;5.30;99.90;;;;;;4976550;28;20201;-78
2023/01/14 04:35:49;;;;;;;14.30;6.40;;;5.30;99.90;;;;;;4959383;28;20592;-79
2023/01/14 04:38:18;;;;;;;11.53;6.20;;;5.20;99.90;;;;;;4977228;28;20282;-80
2023/01/14 04:40:45;;;;;;;10.20;5.70;;;5.30;99.90;;;;;;4960252;28;20285;-78
2023/01/14 04:43:12;;;;;;;11.40;5.83;;;5.20;99.90;;;;;;4976243;28;20206;-78
2023/01/14 04:45:38;;;;;;;9.60;5.67;;;5.20;99.90;;;;;;4975607;28;20281;-78
2023/01/14 04:48:05;;;;;;;10.30;5.80;;;5.20;99.90;;;;;;4976667;28;20208;-77
2023/01/14 04:50:34;;;;;;;9.37;5.80;;;5.20;99.90;;;;;;4959039;28;20571;-78
2023/01/14 04:53:12;;;;;;;11.47;5.73;;;5.20;99.90;;;;;;4959972;28;20570;-78
2023/01/14 04:55:41;;;;;;;11.23;6.07;;;5.20;99.90;;;;;;4958916;28;20685;-78
2023/01/14 04:58:10;;;;;;;11.07;5.73;;;5.10;99.90;;;;;;4976675;28;20558;-78
2023/01/14 05:00:40;;;;;;;11.53;5.90;;;5.10;99.90;;;;;;4976800;28;20709;-78
2023/01/14 05:03:10;;;;;;;10.53;5.70;;;5.10;99.90;;;;;;4959197;28;20215;-79
2023/01/14 05:05:38;;;;;;;14.47;6.07;;;5.10;99.90;;;;;;4976456;28;20697;-78
2023/01/14 05:08:07;;;;;;;11.97;6.10;;;5.20;99.90;;;;;;4959321;28;20203;-79
2023/01/14 05:10:34;;;;;;;11.13;5.80;;;5.20;99.90;;;;;;4959619;28;20196;-78
2023/01/14 05:13:02;;;;;;;10.10;5.60;;;5.20;99.90;;;;;;4975438;28;20200;-78
2023/01/14 05:15:40;;;;;;;11.90;5.73;;;5.20;99.90;;;;;;4959030;28;20199;-78
2023/01/14 05:18:12;;;;;;;11.30;5.90;;;5.20;99.90;;;;;;4975603;28;20195;-79
2023/01/14 05:20:40;;;;;;;9.40;5.43;;;5.20;99.90;;;;;;4959258;28;20284;-80
2023/01/14 05:23:14;;;;;;;10.97;5.93;;;5.20;99.90;;;;;;4975396;28;20235;-80
2023/01/14 05:25:42;;;;;;;10.50;5.57;;;5.20;99.90;;;;;;4958620;28;20212;-79
2023/01/14 05:28:14;;;;;;;9.40;5.20;;;5.30;99.90;;;;;;4975464;28;20202;-77
2023/01/14 05:30:41;;;;;;;9.20;4.67;;;5.30;99.90;;;;;;4975648;28;20223;-80
2023/01/14 05:33:08;;;;;;;9.77;4.87;;;5.30;99.90;;;;;;4976495;28;20561;-79
2023/01/14 05:35:35;;;;;;;9.73;5.20;;;5.30;99.90;;;;;;4971471;28;20240;-79
2023/01/14 05:38:04;;;;;;;11.93;5.10;;;5.30;99.90;;;;;;4955843;28;20210;-78
2023/01/14 05:40:31;;;;;;;11.07;4.93;;;5.40;99.90;;;;;;4955495;29;20242;-79
2023/01/14 05:45:48;;;;;;;10.00;4.73;;;5.30;99.90;;;;;;4954782;28;20200;-79
2023/01/14 05:48:23;;;;;;;9.30;4.50;;;5.50;99.90;;;;;;4954973;29;20618;-79
2023/01/14 05:50:52;;;;;;;8.60;4.43;;;5.50;99.90;;;;;;4954815;29;20211;-77
2023/01/14 05:53:19;;;;;;;6.97;4.00;;;5.40;99.90;;;;;;4955206;29;20209;-79
2023/01/14 05:55:47;;;;;;;11.17;4.47;;;5.40;99.90;;;;;;4955236;29;20290;-79
2023/01/14 05:58:14;;;;;;;8.67;4.27;;;5.40;99.90;;;;;;4955233;28;20207;-78
2023/01/14 06:06:24;;;;;;;7.43;4.13;;;5.40;99.90;;;;;;4954909;29;20202;-78
2023/01/14 06:08:54;;;;;;;9.97;4.30;;;5.40;99.90;;;;;;4954902;29;20245;-78
2023/01/14 06:11:23;;;;;;;6.47;3.73;;;5.40;99.90;;;;;;4970336;28;20219;-77
2023/01/14 06:13:54;;;;;;;8.40;4.20;;;5.40;99.90;;;;;;4954577;29;20228;-77
2023/01/14 06:16:21;;;;;;;9.77;4.03;;;5.30;99.90;;;;;;4953831;29;20209;-77
2023/01/14 06:18:49;;;;;;;8.60;4.00;;;5.40;99.90;;;;;;4954172;29;20263;-77
2023/01/14 06:21:18;;;;;;;7.60;4.13;;;5.40;99.90;;;;;;4896226;29;20229;-76
2023/01/14 06:23:46;;;;;;;7.87;4.00;;;5.20;99.90;;;;;;4896420;29;20252;-77
2023/01/14 06:26:16;;;;;;;9.30;4.20;;;5.30;99.90;;;;;;4895948;29;20211;-76
2023/01/14 06:28:43;;;;;;;8.07;3.80;;;5.30;99.90;;;;;;4896354;29;20201;-77
2023/01/14 06:31:18;;;;;;;8.63;3.80;;;5.30;99.90;;;;;;4896278;29;20580;-77
2023/01/14 06:33:46;;;;;;;9.53;4.20;;;5.30;99.90;;;;;;4895983;29;20577;-77
2023/01/14 06:36:14;;;;;;;9.20;4.03;;;5.30;99.90;;;;;;4895842;29;20247;-78
2023/01/14 06:38:41;;;;;;;7.10;3.40;;;5.50;99.90;;;;;;4907814;29;20209;-78
2023/01/14 06:41:10;;;;;;;7.07;3.80;;;5.40;99.90;;;;;;4954793;29;20246;-78
2023/01/14 06:43:42;;;;;;;7.50;3.73;;;5.60;99.90;;;;;;4969938;28;20294;-77
2023/01/14 06:46:10;;;;;;;8.80;3.90;;;5.50;99.90;;;;;;4955154;28;20184;-78
2023/01/14 06:48:37;;;;;;;8.00;3.77;;;5.60;99.90;;;;;;4954480;29;20207;-79
2023/01/14 06:51:06;;;;;;;6.73;3.67;;;5.50;99.90;;;;;;4955163;29;20309;-82
2023/01/14 06:53:33;;;;;;;8.60;3.80;;;5.50;99.90;;;;;;4970182;28;20198;-79
2023/01/14 06:56:02;;;;;;;8.77;3.90;;;5.50;99.90;;;;;;4953622;29;20202;-78
2023/01/14 06:58:29;;;;;;;8.17;3.90;;;5.50;99.90;;;;;;4953719;28;20198;-78
2023/01/14 07:00:57;;;;;;;5.63;3.23;;;5.40;99.90;;;;;;4969945;28;20224;-77
2023/01/14 07:03:25;;;;;;;8.20;3.70;;;5.40;99.90;;;;;;4953557;29;20255;-78
2023/01/14 07:05:52;;;;;;;8.23;3.53;;;5.40;99.90;;;;;;4953439;29;20674;-78
2023/01/14 07:08:20;;;;;;;5.47;3.27;;;5.40;99.90;;;;;;4954609;28;20632;-78
2023/01/14 07:10:49;;;;;;;5.40;3.60;;;5.40;99.90;;;;;;4969988;28;20347;-76
2023/01/14 07:13:17;;;;;;;8.67;3.50;;;5.40;99.90;;;;;;4953694;29;20215;-76
2023/01/14 07:15:44;;;;;;;8.73;3.70;;;5.40;99.90;;;;;;4953325;29;20193;-78
2023/01/14 07:18:12;;;;;;;6.20;3.27;;;5.40;99.90;;;;;;4953110;29;20207;-80
2023/01/14 07:20:39;;;;;;;6.37;3.37;;;5.50;99.90;;;;;;4969306;28;20233;-77
2023/01/14 07:23:06;;;;;;;5.50;3.33;;;5.50;99.90;;;;;;4954867;28;20560;-79
2023/01/14 07:25:35;;;;;;;7.30;3.20;;;5.60;99.90;;;;;;4969795;28;20219;-78
2023/01/14 07:28:03;;;;;;;8.03;3.40;;;5.80;99.90;;;;;;4953421;29;20198;-77
2023/01/14 07:30:30;;;;;;;9.53;3.53;;;5.70;99.90;;;;;;4954851;28;20611;-78
2023/01/14 07:33:00;;;;;;;7.40;3.50;;;5.70;99.90;;;;;;4937054;29;20208;-82
2023/01/14 07:35:28;;;;;;;7.87;3.23;;;5.80;99.90;;;;;;4956238;28;20228;-77
2023/01/14 07:37:59;;;;;;;6.23;3.07;;;5.80;99.90;;;;;;4956584;28;20229;-81
2023/01/14 07:40:26;;;;;;;6.33;3.20;;;5.80;99.90;;;;;;4973611;28;20636;-81
2023/01/14 07:42:55;;;;;;;5.40;2.77;;;6.00;99.90;;;;;;4956523;28;20663;-82
2023/01/14 07:45:22;;;;;;;8.80;3.00;;;5.90;99.90;;;;;;4960266;28;20608;-83
2023/01/14 07:47:49;;;;;;;7.33;3.07;;;5.90;99.90;;;;;;4960407;28;20205;-80
2023/01/14 07:50:17;;;;;;;4.80;2.67;;;5.90;99.90;;;;;;4977880;28;20201;-76
2023/01/14 07:52:50;;;;;;;8.20;3.43;;;6.00;99.90;;;;;;4960275;28;20662;-78
2023/01/14 07:55:17;;;;;;;6.83;2.90;;;6.00;99.90;;;;;;4976190;28;20207;-77
2023/01/14 07:57:44;;;;;;;6.53;3.10;;;6.00;99.90;;;;;;4960036;28;20211;-76
2023/01/14 08:00:12;;;;;;;6.70;2.90;;;6.00;99.90;;;;;;4976114;28;20251;-80
2023/01/14 08:02:39;;;;;;;7.77;3.07;;;6.10;99.90;;;;;;4959946;28;20520;-79
2023/01/14 08:05:06;;;;;;;5.87;2.90;;;6.20;99.90;;;;;;4976808;28;20742;-78
2023/01/14 08:07:33;;;;;;;7.60;3.03;;;6.20;99.90;;;;;;4977062;28;20619;-81
2023/01/14 08:10:00;;;;;;;7.47;3.30;;;6.20;99.90;;;;;;4943222;28;20556;-84
2023/01/14 08:12:32;;;;;;;6.73;3.17;;;6.20;99.90;;;;;;4943561;28;20192;-80
2023/01/14 08:15:03;;;;;;;7.70;2.97;;;6.30;99.90;;;;;;4958976;28;20689;-79
2023/01/14 08:17:30;;;;;;;7.30;3.07;;;6.30;99.90;;;;;;4975361;28;20196;-81
2023/01/14 08:19:57;;;;;;;8.23;3.17;;;6.30;99.90;;;;;;4959255;28;20286;-80
2023/01/14 08:22:24;;;;;;;7.33;3.20;;;6.30;99.90;;;;;;4975086;28;20227;-79
2023/01/14 08:24:51;;;;;;;6.83;3.23;;;6.30;99.90;;;;;;4959134;28;20227;-78
2023/01/14 08:27:18;;;;;;;6.93;2.90;;;6.30;99.90;;;;;;4959010;28;20194;-79
2023/01/14 08:29:45;;;;;;;7.63;3.20;;;6.30;99.90;;;;;;4959059;28;20210;-78
2023/01/14 08:32:16;;;;;;;7.07;3.30;;;6.30;99.90;;;;;;4944088;29;20566;-80
2023/01/14 08:34:43;;;;;;;8.03;3.13;;;6.40;99.90;;;;;;4939808;28;20586;-80
2023/01/14 08:37:10;;;;;;;6.97;2.73;;;6.70;99.90;;;;;;4974033;28;20584;-79
2023/01/14 08:39:37;;;;;;;6.50;3.30;;;7.00;99.90;;;;;;4975733;28;20638;-79
2023/01/14 08:42:04;;;;;;;7.70;3.23;;;7.30;99.90;;;;;;4958593;28;20235;-77
2023/01/14 08:44:31;;;;;;;7.37;3.00;;;7.60;99.90;;;;;;4958744;28;20207;-79
2023/01/14 08:46:58;;;;;;;7.97;3.17;;;7.80;99.90;;;;;;4974855;28;20215;-79
2023/01/14 08:49:26;;;;;;;6.80;2.87;;;8.00;99.90;;;;;;4974957;28;20208;-77
2023/01/14 08:51:55;;;;;;;6.10;2.90;;;8.00;99.90;;;;;;4958478;28;20215;-81
2023/01/14 08:54:22;;;;;;;5.47;2.73;;;7.90;99.90;;;;;;4974801;28;20296;-79
2023/01/14 08:56:49;;;;;;;6.23;2.93;;;7.80;99.90;;;;;;4957934;28;20299;-76
2023/01/14 08:59:16;;;;;;;5.87;2.70;;;7.60;99.90;;;;;;4975839;28;20197;-79
2023/01/14 09:01:43;;;;;;;6.87;2.70;;;7.50;99.90;;;;;;4958577;28;20278;-79
2023/01/14 09:04:24;;;;;;;8.03;2.87;;;7.40;99.90;;;;;;4958718;28;20210;-75
2023/01/14 09:17:57;;;;;;;6.50;2.63;;;7.30;99.90;;;;;;4957876;28;20201;-79
2023/01/14 09:20:32;;;;;;;8.87;2.83;;;7.30;99.90;;;;;;4957701;28;20194;-80
2023/01/14 09:23:00;;;;;;;6.50;2.80;;;7.20;99.90;;;;;;4974274;28;20211;-81
2023/01/14 09:25:27;;;;;;;6.97;2.93;;;7.20;99.90;;;;;;4973688;28;20203;-79
2023/01/14 09:27:54;;;;;;;6.23;2.57;;;7.10;99.90;;;;;;4957797;28;20240;-81
2023/01/14 09:30:22;;;;;;;6.57;2.90;;;7.10;99.90;;;;;;4973966;28;20675;-78
2023/01/14 09:32:49;;;;;;;9.47;2.90;;;7.10;99.90;;;;;;4957783;28;20230;-77
2023/01/14 09:35:15;;;;;;;6.50;3.00;;;7.10;99.90;;;;;;4973393;28;20351;-74
2023/01/14 09:37:42;;;;;;;4.37;2.47;;;7.10;99.90;;;;;;4957727;28;20193;-75
2023/01/14 09:40:10;;;;;;;6.37;2.90;;;7.10;99.90;;;;;;4957527;28;20200;-77
2023/01/14 09:42:47;;;;;;;9.00;2.67;;;7.10;99.90;;;;;;4974754;28;20623;-77
2023/01/14 09:45:35;;;;;;;7.47;2.80;;;7.30;99.90;;;;;;4957479;28;20199;-77
2023/01/14 09:48:06;;;;;;;7.60;3.27;;;7.30;99.90;;;;;;4957412;28;20209;-79
2023/01/14 09:50:48;;;;;;;9.33;2.80;;;7.40;99.90;;;;;;4974685;28;20217;-76
2023/01/14 09:53:52;;;;;;;8.87;3.10;;;7.30;99.90;;;;;;4957183;28;20205;-77
2023/01/14 09:56:34;;;;;;;5.87;2.50;;;7.40;99.90;;;;;;4957092;28;20239;-75
2023/01/14 09:59:07;;;;;;;7.97;3.33;;;7.50;99.90;;;;;;4957112;28;20213;-78
2023/01/14 10:01:37;;;;;;;7.80;2.70;;;7.30;99.90;;;;;;4956815;28;20228;-75
2023/01/14 10:04:41;;;;;;;6.23;2.93;;;7.30;99.90;;;;;;4957086;28;20211;-79
2023/01/14 10:07:11;;;;;;;5.83;3.30;;;7.40;99.90;;;;;;4956227;28;20208;-83
2023/01/14 10:09:53;;;;;;;9.27;3.20;;;7.40;99.90;;;;;;4957028;28;20204;-79
2023/01/14 10:12:31;;;;;;;7.03;2.90;;;7.40;99.90;;;;;;4956792;28;20189;-77
2023/01/14 10:15:19;;;;;;;7.70;3.10;;;7.40;99.90;;;;;;4956736;28;20562;-76
2023/01/14 10:18:10;;;;;;;5.90;3.00;;;7.40;99.90;;;;;;4974622;28;20204;-76
2023/01/14 10:20:59;;;;;;;6.73;2.80;;;7.40;99.90;;;;;;4956770;28;20204;-74
2023/01/14 10:23:30;;;;;;;7.93;3.13;;;7.50;99.90;;;;;;4973996;28;20322;-75
2023/01/14 10:26:01;;;;;;;6.37;3.00;;;7.60;99.90;;;;;;4956699;28;20224;-75
2023/01/14 10:28:29;;;;;;;5.53;2.80;;;7.60;99.90;;;;;;4974291;28;20193;-75
2023/01/14 10:30:59;;;;;;;5.57;2.93;;;7.70;99.90;;;;;;4956733;28;20271;-76
2023/01/14 10:33:26;;;;;;;6.33;3.10;;;7.70;99.90;;;;;;4974018;28;20196;-78
2023/01/14 10:36:11;;;;;;;6.83;2.53;;;8.00;99.90;;;;;;4956133;28;20221;-74
2023/01/14 10:38:42;;;;;;;5.67;2.80;;;8.10;99.90;;;;;;4956590;28;20196;-77
2023/01/14 10:41:10;;;;;;;4.57;2.60;;;8.30;99.90;;;;;;4972504;28;20570;-80
2023/01/14 10:43:51;;;;;;;5.03;2.40;;;8.30;99.90;;;;;;4972844;28;20642;-79
2023/01/14 10:46:20;;;;;;;7.70;3.10;;;8.40;99.90;;;;;;4972830;28;20207;-77
2023/01/14 10:48:53;;;;;;;6.30;2.70;;;8.40;99.90;;;;;;4956644;28;20189;-83
2023/01/14 10:51:35;;;;;;;5.47;2.60;;;8.40;99.90;;;;;;4956503;28;20209;-76
2023/01/14 10:54:19;;;;;;;6.00;2.40;;;8.30;99.90;;;;;;4956354;28;20204;-80
2023/01/14 10:56:56;;;;;;;7.03;2.70;;;8.40;99.90;;;;;;4973743;28;20227;-76
2023/01/14 10:59:26;;;;;;;6.63;2.30;;;8.40;99.90;;;;;;4972638;28;20593;-78
2023/01/14 11:01:54;;;;;;;8.87;2.80;;;8.40;99.90;;;;;;4956656;28;20233;-79
2023/01/14 11:04:34;;;;;;;6.83;2.53;;;8.50;99.90;;;;;;4956184;28;20638;-77
2023/01/14 11:07:12;;;;;;;5.67;2.63;;;8.50;99.90;;;;;;4956344;28;20209;-76
2023/01/14 11:09:39;;;;;;;7.93;2.70;;;8.60;99.90;;;;;;4972462;28;20206;-76
2023/01/14 11:12:05;;;;;;;6.83;2.60;;;8.50;99.90;;;;;;4973976;28;20224;-74
2023/01/14 11:14:37;;;;;;;6.90;2.50;;;8.60;99.90;;;;;;4956612;28;20200;-81
2023/01/14 11:17:30;;;;;;;7.70;2.60;;;8.70;99.90;;;;;;4956688;28;20215;-79
2023/01/14 11:20:24;;;;;;;5.80;2.20;;;8.50;99.90;;;;;;4977497;28;20224;-80
2023/01/14 11:22:59;;;;;;;5.20;2.50;;;8.60;99.90;;;;;;4960290;28;20311;-79
2023/01/14 11:25:26;;;;;;;6.20;2.20;;;8.60;99.90;;;;;;4960185;28;20198;-84
2023/01/14 11:27:55;;;;;;;6.60;2.40;;;8.50;99.90;;;;;;4960210;28;20200;-81
2023/01/14 11:30:24;;;;;;;4.80;2.40;;;8.50;99.90;;;;;;4976439;28;20636;-81
2023/01/14 11:32:52;;;;;;;4.90;2.40;;;8.60;99.90;;;;;;4960649;28;20201;-81
2023/01/14 11:35:26;;;;;;;4.73;2.30;;;8.60;99.90;;;;;;4959690;28;20232;-80
2023/01/14 11:37:53;;;;;;;7.17;2.23;;;8.70;99.90;;;;;;4960323;28;20200;-80
2023/01/14 11:40:22;;;;;;;8.53;2.77;;;8.60;99.90;;;;;;4960370;28;20201;-80
2023/01/14 11:42:50;;;;;;;6.63;2.23;;;8.50;99.90;;;;;;4959748;28;20789;-79
2023/01/14 11:45:18;;;;;;;6.17;2.83;;;8.50;99.90;;;;;;4959897;28;20306;-79
2023/01/14 11:47:50;;;;;;;6.83;2.20;;;8.50;99.90;;;;;;4977355;28;20178;-78
2023/01/14 11:50:25;;;;;;;4.83;2.50;;;8.60;99.90;;;;;;4959672;28;20344;-79
2023/01/14 11:53:26;;;;;;;5.90;2.27;;;8.50;99.90;;;;;;4959965;28;20196;-77
2023/01/14 11:55:55;;;;;;;4.20;2.17;;;8.50;99.90;;;;;;4879768;29;20272;-79
2023/01/14 11:58:26;;;;;;;5.57;2.57;;;8.40;99.90;;;;;;4880077;29;20580;-78
2023/01/14 12:00:54;;;;;;;6.17;2.60;;;8.50;99.90;;;;;;4864842;29;20215;-79
2023/01/14 12:03:47;;;;;;;7.00;2.70;;;8.60;99.90;;;;;;4879909;29;20247;-79
2023/01/14 12:06:18;;;;;;;3.93;2.47;;;8.50;99.90;;;;;;4864142;29;20216;-79
2023/01/14 12:08:51;;;;;;;6.10;2.30;;;8.50;99.90;;;;;;4879937;29;20256;-79
2023/01/14 12:11:23;;;;;;;4.97;2.57;;;8.50;99.90;;;;;;4864550;29;20237;-77
2023/01/14 12:16:49;;;;;;;6.27;2.40;;;8.50;99.90;;;;;;4864118;29;20651;-78
2023/01/14 12:19:31;;;;;;;6.47;2.50;;;8.40;99.90;;;;;;4879461;29;20720;-80
2023/01/14 12:22:15;;;;;;;5.30;2.20;;;8.40;99.90;;;;;;4863698;29;20275;-75
2023/01/14 12:24:57;;;;;;;7.67;2.60;;;8.40;99.90;;;;;;4879455;29;20212;-79
2023/01/14 12:27:42;;;;;;;7.23;2.50;;;8.50;99.90;;;;;;4864407;29;20733;-77
2023/01/14 12:30:25;;;;;;;4.87;2.40;;;8.50;99.90;;;;;;4878349;29;20513;-74
2023/01/14 12:33:10;;;;;;;5.80;2.43;;;8.40;99.90;;;;;;4932525;28;20239;-76
2023/01/14 12:35:58;;;;;;;5.80;2.30;;;8.30;99.90;;;;;;4958237;28;20636;-79
2023/01/14 12:47:14;;;;;;;6.43;2.60;;;8.60;99.90;;;;;;4863318;29;20304;-81
2023/01/14 12:49:43;;;;;;;6.57;2.77;;;8.50;99.90;;;;;;4863423;29;20695;-77
2023/01/14 12:52:22;;;;;;;8.40;2.50;;;8.60;99.90;;;;;;4863653;29;20209;-79
2023/01/14 12:54:49;;;;;;;7.40;2.33;;;8.40;99.90;;;;;;4863140;29;20256;-81
2023/01/14 12:57:21;;;;;;;9.43;2.70;;;8.50;99.90;;;;;;4878507;29;20219;-79
2023/01/14 12:59:54;;;;;;;6.53;2.73;;;8.60;99.90;;;;;;4878787;29;20666;-81
2023/01/14 13:02:27;;;;;;;7.97;2.73;;;8.50;99.90;;;;;;4863141;29;20232;-78
2023/01/14 13:05:03;;;;;;;7.80;3.07;;;8.50;99.90;;;;;;4863269;29;20562;-79
2023/01/14 13:07:35;;;;;;;5.13;2.93;;;8.60;99.90;;;;;;4863028;29;20211;-79
2023/01/14 13:10:05;;;;;;;5.87;2.70;;;8.70;99.90;;;;;;4863138;29;20212;-74
2023/01/14 13:12:35;;;;;;;6.63;2.60;;;8.90;99.90;;;;;;4862849;29;20201;-79
2023/01/14 13:15:26;;;;;;;7.83;3.00;;;8.90;99.90;;;;;;4902914;28;20551;-80
2023/01/14 13:17:56;;;;;;;8.33;2.83;;;8.90;99.90;;;;;;4975766;28;20203;-79
2023/01/14 13:20:28;;;;;;;8.67;3.17;;;8.80;99.90;;;;;;4958217;28;20407;-75
2023/01/14 13:22:57;;;;;;;5.53;2.70;;;8.70;99.90;;;;;;4975108;28;20243;-77
2023/01/14 13:25:40;;;;;;;6.03;3.00;;;8.60;99.90;;;;;;4957967;28;20198;-80
2023/01/14 13:28:10;;;;;;;7.07;2.80;;;8.60;99.90;;;;;;4958414;28;20197;-77
2023/01/14 13:30:43;;;;;;;6.33;2.67;;;8.60;99.90;;;;;;4957961;28;20537;-78
2023/01/14 13:33:27;;;;;;;6.33;2.77;;;8.70;99.90;;;;;;4957853;28;20312;-77
2023/01/14 13:36:06;;;;;;;7.53;2.87;;;8.50;99.90;;;;;;4957410;28;20679;-78
2023/01/14 13:38:37;;;;;;;7.10;3.10;;;8.60;99.90;;;;;;4958003;28;20299;-80
2023/01/14 13:41:07;;;;;;;7.43;2.90;;;8.80;99.90;;;;;;4973977;28;20236;-75
2023/01/14 13:43:48;;;;;;;6.50;2.93;;;9.10;99.90;;;;;;4973890;28;20220;-74
2023/01/14 13:46:25;;;;;;;9.17;3.20;;;9.10;99.90;;;;;;4973417;28;20561;-75
2023/01/14 13:48:56;;;;;;;8.00;2.87;;;9.10;99.90;;;;;;4957555;28;20197;-76
2023/01/14 13:51:41;;;;;;;7.33;2.93;;;9.10;99.90;;;;;;4957538;28;20629;-77
2023/01/14 13:54:23;;;;;;;6.00;2.90;;;9.10;99.90;;;;;;4957437;28;20332;-76
2023/01/14 13:57:06;;;;;;;7.47;2.90;;;9.00;99.90;;;;;;4957469;28;20221;-77